sensor_id;sensor_type;location;lat;lon;timestamp;P1;durP1;ratioP1;P2;durP2;ratioP2
56435;SDS011;42335;44.872;20.658;2022-12-17T00:00:05;63.90;;;39.55;;
56435;SDS011;42335;44.872;20.658;2022-12-17T00:02:55;63.35;;;36.53;;
56435;SDS011;42335;44.872;20.658;2022-12-17T00:05:40;61.50;;;36.20;;
56435;SDS011;42335;44.872;20.658;2022-12-17T00:11:08;61.53;;;36.15;;
56435;SDS011;42335;44.872;20.658;2022-12-17T00:13:52;69.13;;;39.13;;
56435;SDS011;42335;44.872;20.658;2022-12-17T00:16:36;64.13;;;36.15;;
56435;SDS011;42335;44.872;20.658;2022-12-17T00:19:20;65.80;;;37.83;;
56435;SDS011;42335;44.872;20.658;2022-12-17T00:22:18;69.20;;;41.80;;
56435;SDS011;42335;44.872;20.658;2022-12-17T00:25:03;74.50;;;42.20;;
56435;SDS011;42335;44.872;20.658;2022-12-17T00:27:47;66.13;;;39.33;;
56435;SDS011;42335;44.872;20.658;2022-12-17T00:30:31;71.72;;;38.90;;
56435;SDS011;42335;44.872;20.658;2022-12-17T00:33:15;67.78;;;38.25;;
56435;SDS011;42335;44.872;20.658;2022-12-17T00:36:00;71.75;;;39.55;;
56435;SDS011;42335;44.872;20.658;2022-12-17T00:38:44;63.97;;;38.40;;
56435;SDS011;42335;44.872;20.658;2022-12-17T00:41:29;72.90;;;39.78;;
56435;SDS011;42335;44.872;20.658;2022-12-17T00:46:57;72.55;;;39.72;;
56435;SDS011;42335;44.872;20.658;2022-12-17T00:49:41;75.70;;;39.50;;
56435;SDS011;42335;44.872;20.658;2022-12-17T00:52:26;67.38;;;39.08;;
56435;SDS011;42335;44.872;20.658;2022-12-17T00:55:09;68.57;;;38.25;;
56435;SDS011;42335;44.872;20.658;2022-12-17T00:57:54;68.72;;;40.10;;
56435;SDS011;42335;44.872;20.658;2022-12-17T01:00:39;81.68;;;42.10;;
56435;SDS011;42335;44.872;20.658;2022-12-17T01:03:24;69.65;;;40.83;;
56435;SDS011;42335;44.872;20.658;2022-12-17T01:06:22;77.65;;;43.45;;
56435;SDS011;42335;44.872;20.658;2022-12-17T01:09:06;68.30;;;39.90;;
56435;SDS011;42335;44.872;20.658;2022-12-17T01:11:51;75.95;;;43.45;;
56435;SDS011;42335;44.872;20.658;2022-12-17T01:14:48;74.10;;;40.03;;
56435;SDS011;42335;44.872;20.658;2022-12-17T01:17:32;71.75;;;42.50;;
56435;SDS011;42335;44.872;20.658;2022-12-17T01:20:16;63.97;;;37.35;;
56435;SDS011;42335;44.872;20.658;2022-12-17T01:23:01;74.63;;;41.30;;
56435;SDS011;42335;44.872;20.658;2022-12-17T01:25:55;76.60;;;44.03;;
56435;SDS011;42335;44.872;20.658;2022-12-17T01:28:40;81.40;;;43.13;;
56435;SDS011;42335;44.872;20.658;2022-12-17T01:31:25;79.30;;;43.67;;
56435;SDS011;42335;44.872;20.658;2022-12-17T01:34:09;83.35;;;45.75;;
56435;SDS011;42335;44.872;20.658;2022-12-17T01:36:53;79.70;;;45.55;;
56435;SDS011;42335;44.872;20.658;2022-12-17T01:39:38;78.38;;;43.05;;
56435;SDS011;42335;44.872;20.658;2022-12-17T01:42:22;76.07;;;42.65;;
56435;SDS011;42335;44.872;20.658;2022-12-17T01:45:10;79.45;;;43.40;;
56435;SDS011;42335;44.872;20.658;2022-12-17T01:47:57;73.90;;;40.78;;
56435;SDS011;42335;44.872;20.658;2022-12-17T01:50:45;71.10;;;41.90;;
56435;SDS011;42335;44.872;20.658;2022-12-17T01:53:35;64.95;;;38.03;;
56435;SDS011;42335;44.872;20.658;2022-12-17T01:56:25;72.03;;;40.45;;
56435;SDS011;42335;44.872;20.658;2022-12-17T01:59:09;67.07;;;42.20;;
56435;SDS011;42335;44.872;20.658;2022-12-17T02:01:55;65.75;;;38.22;;
56435;SDS011;42335;44.872;20.658;2022-12-17T02:04:39;73.18;;;38.13;;
56435;SDS011;42335;44.872;20.658;2022-12-17T02:10:43;63.30;;;36.83;;
56435;SDS011;42335;44.872;20.658;2022-12-17T02:13:40;66.13;;;37.30;;
56435;SDS011;42335;44.872;20.658;2022-12-17T02:16:30;63.60;;;39.25;;
56435;SDS011;42335;44.872;20.658;2022-12-17T02:19:30;69.53;;;40.58;;
56435;SDS011;42335;44.872;20.658;2022-12-17T02:22:29;63.95;;;37.85;;
56435;SDS011;42335;44.872;20.658;2022-12-17T02:28:24;73.53;;;40.70;;
56435;SDS011;42335;44.872;20.658;2022-12-17T02:31:09;72.75;;;40.53;;
56435;SDS011;42335;44.872;20.658;2022-12-17T02:33:54;62.15;;;37.85;;
56435;SDS011;42335;44.872;20.658;2022-12-17T02:36:39;65.38;;;37.58;;
56435;SDS011;42335;44.872;20.658;2022-12-17T02:39:23;60.42;;;35.80;;
56435;SDS011;42335;44.872;20.658;2022-12-17T02:42:08;54.28;;;33.88;;
56435;SDS011;42335;44.872;20.658;2022-12-17T02:44:52;55.72;;;34.42;;
56435;SDS011;42335;44.872;20.658;2022-12-17T02:47:38;56.67;;;31.80;;
56435;SDS011;42335;44.872;20.658;2022-12-17T02:53:06;49.25;;;29.50;;
56435;SDS011;42335;44.872;20.658;2022-12-17T02:58:35;42.50;;;26.08;;
56435;SDS011;42335;44.872;20.658;2022-12-17T03:04:03;37.58;;;23.45;;
56435;SDS011;42335;44.872;20.658;2022-12-17T03:06:47;40.42;;;23.48;;
56435;SDS011;42335;44.872;20.658;2022-12-17T03:09:42;41.20;;;24.70;;
56435;SDS011;42335;44.872;20.658;2022-12-17T03:12:27;39.47;;;25.05;;
56435;SDS011;42335;44.872;20.658;2022-12-17T03:17:55;43.55;;;25.42;;
56435;SDS011;42335;44.872;20.658;2022-12-17T03:20:39;47.40;;;26.42;;
56435;SDS011;42335;44.872;20.658;2022-12-17T03:23:23;46.15;;;26.67;;
56435;SDS011;42335;44.872;20.658;2022-12-17T03:26:08;41.88;;;26.45;;
56435;SDS011;42335;44.872;20.658;2022-12-17T03:28:52;49.35;;;28.70;;
56435;SDS011;42335;44.872;20.658;2022-12-17T03:31:36;37.85;;;24.75;;
56435;SDS011;42335;44.872;20.658;2022-12-17T03:34:21;44.08;;;26.00;;
56435;SDS011;42335;44.872;20.658;2022-12-17T03:37:05;39.13;;;25.02;;
56435;SDS011;42335;44.872;20.658;2022-12-17T03:39:49;46.58;;;25.63;;
56435;SDS011;42335;44.872;20.658;2022-12-17T03:45:17;44.50;;;24.65;;
56435;SDS011;42335;44.872;20.658;2022-12-17T03:50:51;34.92;;;21.40;;
56435;SDS011;42335;44.872;20.658;2022-12-17T03:53:36;37.70;;;23.63;;
56435;SDS011;42335;44.872;20.658;2022-12-17T03:56:20;38.22;;;22.73;;
56435;SDS011;42335;44.872;20.658;2022-12-17T04:01:49;46.38;;;27.55;;
56435;SDS011;42335;44.872;20.658;2022-12-17T04:07:17;65.05;;;34.28;;
56435;SDS011;42335;44.872;20.658;2022-12-17T04:10:03;68.88;;;35.60;;
56435;SDS011;42335;44.872;20.658;2022-12-17T04:12:48;73.80;;;39.90;;
56435;SDS011;42335;44.872;20.658;2022-12-17T04:15:32;71.18;;;39.13;;
56435;SDS011;42335;44.872;20.658;2022-12-17T04:18:16;71.65;;;40.35;;
56435;SDS011;42335;44.872;20.658;2022-12-17T04:21:01;75.80;;;42.70;;
56435;SDS011;42335;44.872;20.658;2022-12-17T04:26:29;58.23;;;33.97;;
56435;SDS011;42335;44.872;20.658;2022-12-17T04:29:13;50.22;;;29.17;;
56435;SDS011;42335;44.872;20.658;2022-12-17T04:31:57;37.22;;;21.50;;
56435;SDS011;42335;44.872;20.658;2022-12-17T04:37:25;27.35;;;17.95;;
56435;SDS011;42335;44.872;20.658;2022-12-17T04:40:09;20.85;;;15.30;;
56435;SDS011;42335;44.872;20.658;2022-12-17T04:42:54;25.77;;;13.93;;
56435;SDS011;42335;44.872;20.658;2022-12-17T04:45:38;23.08;;;12.95;;
56435;SDS011;42335;44.872;20.658;2022-12-17T04:51:07;11.73;;;8.70;;
56435;SDS011;42335;44.872;20.658;2022-12-17T04:56:35;16.73;;;10.67;;
56435;SDS011;42335;44.872;20.658;2022-12-17T04:59:19;14.98;;;12.48;;
56435;SDS011;42335;44.872;20.658;2022-12-17T05:02:03;18.45;;;13.18;;
56435;SDS011;42335;44.872;20.658;2022-12-17T05:04:47;15.38;;;11.60;;
56435;SDS011;42335;44.872;20.658;2022-12-17T05:10:15;17.63;;;12.30;;
56435;SDS011;42335;44.872;20.658;2022-12-17T05:12:59;15.85;;;10.98;;
56435;SDS011;42335;44.872;20.658;2022-12-17T05:15:44;18.63;;;12.05;;
56435;SDS011;42335;44.872;20.658;2022-12-17T05:18:29;12.48;;;9.45;;
56435;SDS011;42335;44.872;20.658;2022-12-17T05:21:14;12.50;;;8.93;;
56435;SDS011;42335;44.872;20.658;2022-12-17T05:23:58;9.95;;;7.75;;
56435;SDS011;42335;44.872;20.658;2022-12-17T05:29:26;10.88;;;7.90;;
56435;SDS011;42335;44.872;20.658;2022-12-17T05:32:10;10.85;;;8.32;;
56435;SDS011;42335;44.872;20.658;2022-12-17T05:37:39;14.75;;;7.97;;
56435;SDS011;42335;44.872;20.658;2022-12-17T05:40:23;13.10;;;7.60;;
56435;SDS011;42335;44.872;20.658;2022-12-17T05:45:53;12.38;;;8.05;;
56435;SDS011;42335;44.872;20.658;2022-12-17T05:48:37;13.80;;;9.70;;
56435;SDS011;42335;44.872;20.658;2022-12-17T05:51:22;13.80;;;9.80;;
56435;SDS011;42335;44.872;20.658;2022-12-17T05:54:07;18.60;;;11.15;;
56435;SDS011;42335;44.872;20.658;2022-12-17T05:56:51;19.08;;;11.75;;
56435;SDS011;42335;44.872;20.658;2022-12-17T05:59:36;19.20;;;13.00;;
56435;SDS011;42335;44.872;20.658;2022-12-17T06:02:21;26.05;;;16.33;;
56435;SDS011;42335;44.872;20.658;2022-12-17T06:05:06;24.42;;;15.32;;
56435;SDS011;42335;44.872;20.658;2022-12-17T06:07:51;25.73;;;16.67;;
56435;SDS011;42335;44.872;20.658;2022-12-17T06:10:36;32.63;;;18.10;;
56435;SDS011;42335;44.872;20.658;2022-12-17T06:13:34;32.05;;;19.90;;
56435;SDS011;42335;44.872;20.658;2022-12-17T06:19:02;32.40;;;19.25;;
56435;SDS011;42335;44.872;20.658;2022-12-17T06:21:47;35.78;;;21.02;;
56435;SDS011;42335;44.872;20.658;2022-12-17T06:24:31;33.67;;;20.00;;
56435;SDS011;42335;44.872;20.658;2022-12-17T06:27:15;33.58;;;20.17;;
56435;SDS011;42335;44.872;20.658;2022-12-17T06:29:59;33.08;;;21.00;;
56435;SDS011;42335;44.872;20.658;2022-12-17T06:35:27;37.35;;;23.30;;
56435;SDS011;42335;44.872;20.658;2022-12-17T06:38:11;46.95;;;25.02;;
56435;SDS011;42335;44.872;20.658;2022-12-17T06:40:58;45.53;;;26.35;;
56435;SDS011;42335;44.872;20.658;2022-12-17T06:43:44;45.65;;;25.83;;
56435;SDS011;42335;44.872;20.658;2022-12-17T06:49:12;41.47;;;23.85;;
56435;SDS011;42335;44.872;20.658;2022-12-17T06:54:42;48.05;;;25.50;;
56435;SDS011;42335;44.872;20.658;2022-12-17T06:57:27;34.42;;;20.38;;
56435;SDS011;42335;44.872;20.658;2022-12-17T07:00:12;38.03;;;21.52;;
56435;SDS011;42335;44.872;20.658;2022-12-17T07:02:58;38.72;;;22.10;;
56435;SDS011;42335;44.872;20.658;2022-12-17T07:05:42;38.85;;;23.58;;
56435;SDS011;42335;44.872;20.658;2022-12-17T07:08:26;40.35;;;23.02;;
56435;SDS011;42335;44.872;20.658;2022-12-17T07:13:54;37.50;;;21.38;;
56435;SDS011;42335;44.872;20.658;2022-12-17T07:16:38;39.67;;;21.85;;
56435;SDS011;42335;44.872;20.658;2022-12-17T07:19:23;35.10;;;21.38;;
56435;SDS011;42335;44.872;20.658;2022-12-17T07:22:07;39.13;;;22.17;;
56435;SDS011;42335;44.872;20.658;2022-12-17T07:24:51;41.83;;;24.20;;
56435;SDS011;42335;44.872;20.658;2022-12-17T07:27:35;43.92;;;26.02;;
56435;SDS011;42335;44.872;20.658;2022-12-17T07:30:19;45.90;;;26.48;;
56435;SDS011;42335;44.872;20.658;2022-12-17T07:38:34;50.22;;;27.73;;
56435;SDS011;42335;44.872;20.658;2022-12-17T07:41:18;47.60;;;27.42;;
56435;SDS011;42335;44.872;20.658;2022-12-17T07:44:02;52.90;;;27.48;;
56435;SDS011;42335;44.872;20.658;2022-12-17T07:46:47;55.75;;;31.25;;
56435;SDS011;42335;44.872;20.658;2022-12-17T07:49:32;50.08;;;29.45;;
56435;SDS011;42335;44.872;20.658;2022-12-17T07:52:16;46.42;;;27.00;;
56435;SDS011;42335;44.872;20.658;2022-12-17T07:55:00;51.58;;;29.08;;
56435;SDS011;42335;44.872;20.658;2022-12-17T07:57:45;44.35;;;27.60;;
56435;SDS011;42335;44.872;20.658;2022-12-17T08:00:29;50.83;;;26.90;;
56435;SDS011;42335;44.872;20.658;2022-12-17T08:03:13;53.55;;;29.60;;
56435;SDS011;42335;44.872;20.658;2022-12-17T08:08:41;47.90;;;26.60;;
56435;SDS011;42335;44.872;20.658;2022-12-17T08:11:25;54.58;;;31.27;;
56435;SDS011;42335;44.872;20.658;2022-12-17T08:14:10;52.72;;;30.08;;
56435;SDS011;42335;44.872;20.658;2022-12-17T08:19:38;62.28;;;33.53;;
56435;SDS011;42335;44.872;20.658;2022-12-17T08:22:23;60.67;;;32.90;;
56435;SDS011;42335;44.872;20.658;2022-12-17T08:25:07;63.72;;;35.88;;
56435;SDS011;42335;44.872;20.658;2022-12-17T08:27:59;71.75;;;39.17;;
56435;SDS011;42335;44.872;20.658;2022-12-17T08:30:47;72.35;;;38.80;;
56435;SDS011;42335;44.872;20.658;2022-12-17T08:33:31;74.70;;;37.58;;
56435;SDS011;42335;44.872;20.658;2022-12-17T08:36:16;72.07;;;38.88;;
56435;SDS011;42335;44.872;20.658;2022-12-17T08:39:03;78.70;;;42.08;;
56435;SDS011;42335;44.872;20.658;2022-12-17T08:41:51;66.40;;;36.33;;
56435;SDS011;42335;44.872;20.658;2022-12-17T08:44:35;64.40;;;36.85;;
56435;SDS011;42335;44.872;20.658;2022-12-17T08:47:20;65.20;;;36.15;;
56435;SDS011;42335;44.872;20.658;2022-12-17T08:50:06;57.72;;;33.53;;
56435;SDS011;42335;44.872;20.658;2022-12-17T08:52:58;61.50;;;34.35;;
56435;SDS011;42335;44.872;20.658;2022-12-17T08:55:43;62.53;;;33.88;;
56435;SDS011;42335;44.872;20.658;2022-12-17T08:58:27;58.75;;;34.10;;
56435;SDS011;42335;44.872;20.658;2022-12-17T09:03:56;62.33;;;33.55;;
56435;SDS011;42335;44.872;20.658;2022-12-17T09:06:40;73.05;;;35.47;;
56435;SDS011;42335;44.872;20.658;2022-12-17T09:09:24;72.82;;;39.33;;
56435;SDS011;42335;44.872;20.658;2022-12-17T09:12:08;66.20;;;37.33;;
56435;SDS011;42335;44.872;20.658;2022-12-17T09:17:36;58.63;;;32.58;;
56435;SDS011;42335;44.872;20.658;2022-12-17T09:20:20;59.22;;;33.92;;
56435;SDS011;42335;44.872;20.658;2022-12-17T09:23:04;56.70;;;31.17;;
56435;SDS011;42335;44.872;20.658;2022-12-17T09:25:55;58.42;;;33.17;;
56435;SDS011;42335;44.872;20.658;2022-12-17T09:28:39;58.15;;;31.67;;
56435;SDS011;42335;44.872;20.658;2022-12-17T09:31:24;56.67;;;30.67;;
56435;SDS011;42335;44.872;20.658;2022-12-17T09:34:08;60.42;;;31.83;;
56435;SDS011;42335;44.872;20.658;2022-12-17T09:36:52;56.47;;;30.88;;
56435;SDS011;42335;44.872;20.658;2022-12-17T09:39:36;78.80;;;41.53;;
56435;SDS011;42335;44.872;20.658;2022-12-17T09:45:07;52.17;;;30.35;;
56435;SDS011;42335;44.872;20.658;2022-12-17T09:48:02;53.88;;;30.25;;
56435;SDS011;42335;44.872;20.658;2022-12-17T09:50:57;54.92;;;30.35;;
56435;SDS011;42335;44.872;20.658;2022-12-17T09:53:45;58.05;;;30.42;;
56435;SDS011;42335;44.872;20.658;2022-12-17T09:56:34;48.10;;;26.92;;
56435;SDS011;42335;44.872;20.658;2022-12-17T09:59:21;52.95;;;27.38;;
56435;SDS011;42335;44.872;20.658;2022-12-17T10:02:25;50.88;;;30.08;;
56435;SDS011;42335;44.872;20.658;2022-12-17T10:05:14;55.08;;;29.92;;
56435;SDS011;42335;44.872;20.658;2022-12-17T10:08:09;56.78;;;31.92;;
56435;SDS011;42335;44.872;20.658;2022-12-17T10:11:20;60.13;;;31.60;;
56435;SDS011;42335;44.872;20.658;2022-12-17T10:14:18;52.38;;;29.45;;
56435;SDS011;42335;44.872;20.658;2022-12-17T10:17:08;56.90;;;30.52;;
56435;SDS011;42335;44.872;20.658;2022-12-17T10:23:09;53.50;;;29.27;;
56435;SDS011;42335;44.872;20.658;2022-12-17T10:25:54;78.60;;;36.67;;
56435;SDS011;42335;44.872;20.658;2022-12-17T10:28:39;67.43;;;30.33;;
56435;SDS011;42335;44.872;20.658;2022-12-17T10:31:28;70.45;;;33.80;;
56435;SDS011;42335;44.872;20.658;2022-12-17T10:34:16;56.40;;;29.30;;
56435;SDS011;42335;44.872;20.658;2022-12-17T10:37:04;63.72;;;28.73;;
56435;SDS011;42335;44.872;20.658;2022-12-17T10:39:59;73.07;;;31.40;;
56435;SDS011;42335;44.872;20.658;2022-12-17T10:42:45;64.25;;;30.50;;
56435;SDS011;42335;44.872;20.658;2022-12-17T10:57:23;63.53;;;30.35;;
56435;SDS011;42335;44.872;20.658;2022-12-17T11:03:03;48.40;;;29.23;;
56435;SDS011;42335;44.872;20.658;2022-12-17T11:05:48;55.17;;;30.75;;
56435;SDS011;42335;44.872;20.658;2022-12-17T11:08:41;48.93;;;29.80;;
56435;SDS011;42335;44.872;20.658;2022-12-17T11:11:25;58.40;;;32.28;;
56435;SDS011;42335;44.872;20.658;2022-12-17T11:14:21;53.72;;;30.95;;
56435;SDS011;42335;44.872;20.658;2022-12-17T11:17:08;55.60;;;32.30;;
56435;SDS011;42335;44.872;20.658;2022-12-17T11:20:17;57.15;;;32.08;;
56435;SDS011;42335;44.872;20.658;2022-12-17T11:23:24;65.85;;;33.80;;
56435;SDS011;42335;44.872;20.658;2022-12-17T11:26:09;64.03;;;33.17;;
56435;SDS011;42335;44.872;20.658;2022-12-17T11:29:00;54.53;;;32.10;;
56435;SDS011;42335;44.872;20.658;2022-12-17T11:50:26;54.75;;;29.05;;
56435;SDS011;42335;44.872;20.658;2022-12-17T11:59:29;50.63;;;30.00;;
56435;SDS011;42335;44.872;20.658;2022-12-17T12:05:47;59.88;;;32.97;;
56435;SDS011;42335;44.872;20.658;2022-12-17T12:08:43;54.33;;;29.85;;
56435;SDS011;42335;44.872;20.658;2022-12-17T12:24:10;43.17;;;25.45;;
56435;SDS011;42335;44.872;20.658;2022-12-17T12:36:17;50.83;;;28.60;;
56435;SDS011;42335;44.872;20.658;2022-12-17T12:39:04;51.88;;;28.55;;
56435;SDS011;42335;44.872;20.658;2022-12-17T12:42:01;57.85;;;29.88;;
56435;SDS011;42335;44.872;20.658;2022-12-17T12:44:58;54.47;;;29.58;;
56435;SDS011;42335;44.872;20.658;2022-12-17T12:48:01;77.22;;;32.95;;
56435;SDS011;42335;44.872;20.658;2022-12-17T12:51:22;62.58;;;33.45;;
56435;SDS011;42335;44.872;20.658;2022-12-17T12:57:23;59.55;;;33.55;;
56435;SDS011;42335;44.872;20.658;2022-12-17T13:03:30;60.60;;;34.35;;
56435;SDS011;42335;44.872;20.658;2022-12-17T13:11:56;62.38;;;35.50;;
56435;SDS011;42335;44.872;20.658;2022-12-17T13:14:55;61.15;;;36.10;;
56435;SDS011;42335;44.872;20.658;2022-12-17T13:17:33;49.17;;;26.70;;
56435;SDS011;42335;44.872;20.658;2022-12-17T13:25:42;73.65;;;52.00;;
56435;SDS011;42335;44.872;20.658;2022-12-17T13:28:28;60.78;;;34.15;;
56435;SDS011;42335;44.872;20.658;2022-12-17T13:31:04;63.65;;;41.92;;
56435;SDS011;42335;44.872;20.658;2022-12-17T13:38:54;112.00;;;66.88;;
56435;SDS011;42335;44.872;20.658;2022-12-17T13:41:44;95.50;;;57.40;;
56435;SDS011;42335;44.872;20.658;2022-12-17T13:44:20;112.35;;;63.75;;
56435;SDS011;42335;44.872;20.658;2022-12-17T13:47:20;118.80;;;62.45;;
56435;SDS011;42335;44.872;20.658;2022-12-17T13:49:55;225.35;;;119.18;;
56435;SDS011;42335;44.872;20.658;2022-12-17T13:52:23;134.27;;;71.93;;
56435;SDS011;42335;44.872;20.658;2022-12-17T13:54:51;157.32;;;80.53;;
56435;SDS011;42335;44.872;20.658;2022-12-17T13:57:18;215.55;;;104.60;;
56435;SDS011;42335;44.872;20.658;2022-12-17T13:59:49;299.15;;;151.20;;
56435;SDS011;42335;44.872;20.658;2022-12-17T14:02:26;209.68;;;101.70;;
56435;SDS011;42335;44.872;20.658;2022-12-17T14:04:56;252.55;;;118.28;;
56435;SDS011;42335;44.872;20.658;2022-12-17T14:07:24;259.83;;;126.20;;
56435;SDS011;42335;44.872;20.658;2022-12-17T14:09:51;133.25;;;73.03;;
56435;SDS011;42335;44.872;20.658;2022-12-17T14:12:18;150.68;;;82.30;;
56435;SDS011;42335;44.872;20.658;2022-12-17T14:14:48;175.35;;;95.28;;
56435;SDS011;42335;44.872;20.658;2022-12-17T14:17:22;233.32;;;117.35;;
56435;SDS011;42335;44.872;20.658;2022-12-17T14:19:51;200.50;;;114.50;;
56435;SDS011;42335;44.872;20.658;2022-12-17T14:22:42;120.35;;;72.97;;
56435;SDS011;42335;44.872;20.658;2022-12-17T14:25:44;99.00;;;62.22;;
56435;SDS011;42335;44.872;20.658;2022-12-17T14:28:05;62.40;;;38.40;;
56435;SDS011;42335;44.872;20.658;2022-12-17T14:30:45;69.90;;;41.83;;
56435;SDS011;42335;44.872;20.658;2022-12-17T14:33:30;56.28;;;32.33;;
56435;SDS011;42335;44.872;20.658;2022-12-17T14:35:58;59.97;;;33.55;;
56435;SDS011;42335;44.872;20.658;2022-12-17T14:38:26;102.82;;;53.90;;
56435;SDS011;42335;44.872;20.658;2022-12-17T14:40:52;91.03;;;47.88;;
56435;SDS011;42335;44.872;20.658;2022-12-17T14:43:22;75.03;;;39.88;;
56435;SDS011;42335;44.872;20.658;2022-12-17T14:45:54;57.05;;;31.33;;
56435;SDS011;42335;44.872;20.658;2022-12-17T14:48:41;54.53;;;32.20;;
56435;SDS011;42335;44.872;20.658;2022-12-17T14:53:51;54.95;;;31.40;;
56435;SDS011;42335;44.872;20.658;2022-12-17T14:56:21;52.85;;;31.55;;
56435;SDS011;42335;44.872;20.658;2022-12-17T14:58:47;238.45;;;135.27;;
56435;SDS011;42335;44.872;20.658;2022-12-17T15:01:13;59.72;;;35.10;;
56435;SDS011;42335;44.872;20.658;2022-12-17T15:03:43;61.38;;;36.38;;
56435;SDS011;42335;44.872;20.658;2022-12-17T15:06:12;68.32;;;36.38;;
56435;SDS011;42335;44.872;20.658;2022-12-17T15:08:41;62.10;;;37.83;;
56435;SDS011;42335;44.872;20.658;2022-12-17T15:11:08;61.53;;;34.80;;
56435;SDS011;42335;44.872;20.658;2022-12-17T15:13:35;68.43;;;37.78;;
56435;SDS011;42335;44.872;20.658;2022-12-17T15:16:01;65.68;;;37.88;;
56435;SDS011;42335;44.872;20.658;2022-12-17T15:18:27;64.97;;;36.03;;
56435;SDS011;42335;44.872;20.658;2022-12-17T15:20:53;74.00;;;42.05;;
56435;SDS011;42335;44.872;20.658;2022-12-17T15:23:20;79.10;;;39.78;;
56435;SDS011;42335;44.872;20.658;2022-12-17T15:25:47;73.28;;;41.50;;
56435;SDS011;42335;44.872;20.658;2022-12-17T15:28:15;76.00;;;41.20;;
56435;SDS011;42335;44.872;20.658;2022-12-17T15:30:42;78.22;;;41.25;;
56435;SDS011;42335;44.872;20.658;2022-12-17T15:33:08;85.38;;;45.67;;
56435;SDS011;42335;44.872;20.658;2022-12-17T15:35:35;88.97;;;52.38;;
56435;SDS011;42335;44.872;20.658;2022-12-17T15:38:10;91.88;;;54.53;;
56435;SDS011;42335;44.872;20.658;2022-12-17T15:40:36;112.40;;;74.32;;
56435;SDS011;42335;44.872;20.658;2022-12-17T15:43:02;147.35;;;103.15;;
56435;SDS011;42335;44.872;20.658;2022-12-17T15:45:43;102.03;;;60.63;;
56435;SDS011;42335;44.872;20.658;2022-12-17T15:48:16;93.63;;;50.10;;
56435;SDS011;42335;44.872;20.658;2022-12-17T15:50:43;80.78;;;44.70;;
56435;SDS011;42335;44.872;20.658;2022-12-17T15:53:09;88.45;;;47.58;;
56435;SDS011;42335;44.872;20.658;2022-12-17T15:55:35;91.85;;;51.13;;
56435;SDS011;42335;44.872;20.658;2022-12-17T15:58:02;367.85;;;171.48;;
56435;SDS011;42335;44.872;20.658;2022-12-17T16:00:28;130.63;;;72.50;;
56435;SDS011;42335;44.872;20.658;2022-12-17T16:02:54;98.38;;;57.60;;
56435;SDS011;42335;44.872;20.658;2022-12-17T16:05:19;79.05;;;46.90;;
56435;SDS011;42335;44.872;20.658;2022-12-17T16:07:47;82.35;;;44.88;;
56435;SDS011;42335;44.872;20.658;2022-12-17T16:10:13;73.70;;;43.00;;
56435;SDS011;42335;44.872;20.658;2022-12-17T16:12:39;75.30;;;43.95;;
56435;SDS011;42335;44.872;20.658;2022-12-17T16:15:05;75.20;;;43.22;;
56435;SDS011;42335;44.872;20.658;2022-12-17T16:17:35;81.15;;;43.30;;
56435;SDS011;42335;44.872;20.658;2022-12-17T16:20:00;203.15;;;115.75;;
56435;SDS011;42335;44.872;20.658;2022-12-17T16:22:27;81.78;;;44.70;;
56435;SDS011;42335;44.872;20.658;2022-12-17T16:24:53;77.78;;;45.47;;
56435;SDS011;42335;44.872;20.658;2022-12-17T16:27:19;78.18;;;43.83;;
56435;SDS011;42335;44.872;20.658;2022-12-17T16:29:44;77.82;;;45.90;;
56435;SDS011;42335;44.872;20.658;2022-12-17T16:32:12;76.78;;;42.33;;
56435;SDS011;42335;44.872;20.658;2022-12-17T16:34:38;90.75;;;50.17;;
56435;SDS011;42335;44.872;20.658;2022-12-17T16:37:07;87.22;;;47.90;;
56435;SDS011;42335;44.872;20.658;2022-12-17T16:39:32;81.65;;;45.88;;
56435;SDS011;42335;44.872;20.658;2022-12-17T16:41:58;94.07;;;50.92;;
56435;SDS011;42335;44.872;20.658;2022-12-17T16:44:24;84.50;;;46.05;;
56435;SDS011;42335;44.872;20.658;2022-12-17T16:46:50;86.93;;;46.45;;
56435;SDS011;42335;44.872;20.658;2022-12-17T16:49:19;78.68;;;43.20;;
56435;SDS011;42335;44.872;20.658;2022-12-17T16:51:47;80.35;;;45.70;;
56435;SDS011;42335;44.872;20.658;2022-12-17T16:54:17;85.70;;;47.80;;
56435;SDS011;42335;44.872;20.658;2022-12-17T16:56:44;86.40;;;45.95;;
56435;SDS011;42335;44.872;20.658;2022-12-17T16:59:10;81.75;;;44.20;;
56435;SDS011;42335;44.872;20.658;2022-12-17T17:01:37;78.30;;;44.72;;
56435;SDS011;42335;44.872;20.658;2022-12-17T17:04:04;85.05;;;45.70;;
56435;SDS011;42335;44.872;20.658;2022-12-17T17:06:31;86.47;;;46.67;;
56435;SDS011;42335;44.872;20.658;2022-12-17T17:08:57;91.78;;;51.22;;
56435;SDS011;42335;44.872;20.658;2022-12-17T17:11:24;94.43;;;47.67;;
56435;SDS011;42335;44.872;20.658;2022-12-17T17:13:51;75.43;;;43.95;;
56435;SDS011;42335;44.872;20.658;2022-12-17T17:16:18;93.50;;;49.67;;
56435;SDS011;42335;44.872;20.658;2022-12-17T17:18:45;89.70;;;47.38;;
56435;SDS011;42335;44.872;20.658;2022-12-17T17:21:30;91.90;;;47.78;;
56435;SDS011;42335;44.872;20.658;2022-12-17T17:24:03;163.25;;;83.45;;
56435;SDS011;42335;44.872;20.658;2022-12-17T17:26:31;85.22;;;44.90;;
56435;SDS011;42335;44.872;20.658;2022-12-17T17:28:58;76.57;;;42.53;;
56435;SDS011;42335;44.872;20.658;2022-12-17T17:31:24;73.13;;;41.80;;
56435;SDS011;42335;44.872;20.658;2022-12-17T17:33:50;80.07;;;42.72;;
56435;SDS011;42335;44.872;20.658;2022-12-17T17:36:20;199.98;;;97.10;;
56435;SDS011;42335;44.872;20.658;2022-12-17T17:38:46;153.60;;;77.93;;
56435;SDS011;42335;44.872;20.658;2022-12-17T17:41:14;165.70;;;89.40;;
56435;SDS011;42335;44.872;20.658;2022-12-17T17:43:41;112.13;;;59.30;;
56435;SDS011;42335;44.872;20.658;2022-12-17T17:46:08;132.65;;;71.30;;
56435;SDS011;42335;44.872;20.658;2022-12-17T17:48:34;160.18;;;83.32;;
56435;SDS011;42335;44.872;20.658;2022-12-17T17:51:02;108.75;;;61.03;;
56435;SDS011;42335;44.872;20.658;2022-12-17T17:53:30;81.07;;;46.58;;
56435;SDS011;42335;44.872;20.658;2022-12-17T17:56:06;87.75;;;49.50;;
56435;SDS011;42335;44.872;20.658;2022-12-17T17:58:45;74.43;;;44.25;;
56435;SDS011;42335;44.872;20.658;2022-12-17T18:01:17;76.45;;;43.60;;
56435;SDS011;42335;44.872;20.658;2022-12-17T18:03:44;77.78;;;43.55;;
56435;SDS011;42335;44.872;20.658;2022-12-17T18:06:11;68.93;;;38.95;;
56435;SDS011;42335;44.872;20.658;2022-12-17T18:08:38;71.70;;;38.95;;
56435;SDS011;42335;44.872;20.658;2022-12-17T18:11:06;73.65;;;40.47;;
56435;SDS011;42335;44.872;20.658;2022-12-17T18:13:36;76.43;;;41.78;;
56435;SDS011;42335;44.872;20.658;2022-12-17T18:16:25;70.63;;;39.20;;
56435;SDS011;42335;44.872;20.658;2022-12-17T18:18:54;70.25;;;39.88;;
56435;SDS011;42335;44.872;20.658;2022-12-17T18:21:22;77.25;;;43.22;;
56435;SDS011;42335;44.872;20.658;2022-12-17T18:23:52;85.60;;;46.58;;
56435;SDS011;42335;44.872;20.658;2022-12-17T18:26:24;77.00;;;43.80;;
56435;SDS011;42335;44.872;20.658;2022-12-17T18:28:50;74.40;;;42.78;;